createdAt,value
2023-04-30T00:02:12.013Z,5.69
2023-04-30T00:04:38.551Z,5.66
2023-04-30T00:07:05.141Z,5.56
2023-04-30T00:09:31.640Z,5.60
2023-04-30T00:11:58.121Z,5.54
2023-04-30T00:14:24.806Z,5.51
2023-04-30T00:16:51.491Z,5.55
2023-04-30T00:19:17.984Z,5.47
2023-04-30T00:21:44.446Z,5.42
2023-04-30T00:24:10.854Z,5.40
2023-04-30T00:26:37.290Z,5.44
2023-04-30T00:29:03.752Z,5.39
2023-04-30T00:31:30.279Z,5.39
2023-04-30T00:33:57.592Z,5.42
2023-04-30T00:36:24.094Z,5.39
2023-04-30T00:38:50.954Z,5.37
2023-04-30T00:41:18.252Z,5.29
2023-04-30T00:43:46.832Z,5.33
2023-04-30T00:46:13.549Z,5.30
2023-04-30T00:48:40.031Z,5.23
2023-04-30T00:51:06.854Z,5.20
2023-04-30T00:53:33.558Z,5.16
2023-04-30T00:56:00.064Z,5.17
2023-04-30T00:58:26.684Z,5.14
2023-04-30T01:00:53.405Z,5.08
2023-04-30T01:03:20.296Z,5.03
2023-04-30T01:09:27.190Z,4.92
2023-04-30T01:12:13.461Z,4.86
2023-04-30T01:14:53.661Z,4.87
2023-04-30T01:17:38.904Z,4.86
2023-04-30T01:20:07.756Z,4.87
2023-04-30T01:22:53.313Z,4.68
2023-04-30T01:26:06.837Z,4.75
2023-04-30T01:28:36.491Z,4.65
2023-04-30T01:31:03.269Z,4.66
2023-04-30T01:33:29.861Z,4.69
2023-04-30T01:36:27.125Z,4.71
2023-04-30T01:39:11.407Z,4.66
2023-04-30T01:41:44.563Z,4.61
2023-04-30T01:44:41.111Z,4.61
2023-04-30T01:47:26.628Z,4.58
2023-04-30T01:50:31.032Z,4.57
2023-04-30T01:53:02.920Z,4.46
2023-04-30T01:55:41.771Z,4.52
2023-04-30T01:58:11.872Z,4.45
2023-04-30T02:00:38.338Z,4.51
2023-04-30T02:03:04.981Z,4.47
2023-04-30T02:05:31.531Z,4.41
2023-04-30T02:07:58.061Z,4.49
2023-04-30T02:10:26.419Z,4.40
2023-04-30T02:12:53.260Z,4.41
2023-04-30T02:15:19.862Z,4.28
2023-04-30T02:17:46.354Z,4.25
2023-04-30T02:20:13.074Z,4.26
2023-04-30T02:22:39.635Z,4.27
2023-04-30T02:25:06.945Z,4.20
2023-04-30T02:27:34.128Z,4.20
2023-04-30T02:30:01.011Z,4.14
2023-04-30T02:32:27.604Z,4.12
2023-04-30T02:34:54.148Z,4.09
2023-04-30T02:37:20.721Z,4.12
2023-04-30T02:39:48.183Z,4.11
2023-04-30T02:42:15.256Z,3.96
2023-04-30T02:44:41.826Z,3.87
2023-04-30T02:47:08.346Z,3.84
2023-04-30T02:49:34.902Z,3.85
2023-04-30T02:52:01.707Z,3.83
2023-04-30T02:54:28.454Z,3.80
2023-04-30T02:56:54.940Z,3.78
2023-04-30T02:59:21.383Z,3.69
2023-04-30T03:01:47.953Z,3.72
2023-04-30T03:04:14.457Z,3.68
2023-04-30T03:06:41.101Z,3.65
2023-04-30T03:09:08.208Z,3.58
2023-04-30T03:11:37.486Z,3.50
2023-04-30T03:14:04.906Z,3.42
2023-04-30T03:16:31.457Z,3.47
2023-04-30T03:18:58.415Z,3.46
2023-04-30T03:21:24.855Z,3.41
2023-04-30T03:23:51.687Z,3.34
2023-04-30T03:26:20.956Z,3.34
2023-04-30T03:28:47.559Z,3.20
2023-04-30T03:31:14.195Z,3.22
2023-04-30T03:33:40.829Z,3.19
2023-04-30T03:36:07.401Z,2.98
2023-04-30T03:38:33.942Z,3.02
2023-04-30T03:41:00.467Z,2.97
2023-04-30T03:43:26.947Z,2.89
2023-04-30T03:45:53.596Z,3.02
2023-04-30T03:48:20.568Z,2.95
2023-04-30T03:50:47.147Z,3.01
2023-04-30T03:53:13.660Z,3.06
2023-04-30T03:55:40.198Z,3.03
2023-04-30T03:58:06.701Z,3.00
2023-04-30T04:00:33.489Z,2.95
2023-04-30T04:03:00.081Z,2.90
2023-04-30T04:05:26.776Z,2.96
2023-04-30T04:07:53.396Z,2.91
2023-04-30T04:10:19.941Z,2.93
2023-04-30T04:12:46.586Z,2.93
2023-04-30T04:15:13.515Z,2.97
2023-04-30T04:17:40.138Z,2.96
2023-04-30T04:20:07.629Z,3.02
2023-04-30T04:22:34.135Z,2.98
2023-04-30T04:25:01.385Z,3.06
2023-04-30T04:27:27.917Z,3.07
2023-04-30T04:29:55.134Z,3.18
2023-04-30T04:32:22.732Z,3.23
2023-04-30T04:34:49.633Z,3.29
2023-04-30T04:37:17.552Z,3.38
2023-04-30T04:39:45.162Z,3.59
2023-04-30T04:42:12.026Z,3.72
2023-04-30T04:44:38.510Z,3.76
2023-04-30T04:47:05.259Z,3.72
2023-04-30T04:49:31.824Z,3.80
2023-04-30T04:51:58.507Z,3.75
2023-04-30T04:54:25.101Z,3.86
2023-04-30T04:56:51.765Z,3.96
2023-04-30T04:59:18.813Z,3.93
2023-04-30T05:01:45.305Z,4.05
2023-04-30T05:04:13.785Z,4.21
2023-04-30T05:06:41.511Z,4.10
2023-04-30T05:09:09.393Z,4.16
2023-04-30T05:11:36.380Z,4.16
2023-04-30T05:14:03.036Z,4.38
2023-04-30T05:16:30.131Z,4.23
2023-04-30T05:18:56.772Z,4.36
2023-04-30T05:21:23.477Z,4.33
2023-04-30T05:23:49.920Z,4.48
2023-04-30T05:26:16.469Z,4.45
2023-04-30T05:28:43.004Z,4.47
2023-04-30T05:31:09.577Z,4.47
2023-04-30T05:33:37.156Z,4.51
2023-04-30T05:36:03.993Z,4.58
2023-04-30T05:38:30.501Z,4.70
2023-04-30T05:40:57.020Z,4.50
2023-04-30T05:43:23.568Z,4.54
2023-04-30T05:45:50.143Z,4.56
2023-04-30T05:48:16.712Z,4.54
2023-04-30T05:50:43.557Z,4.61
2023-04-30T05:53:10.611Z,4.70
2023-04-30T05:55:37.176Z,4.79
2023-04-30T05:58:03.669Z,4.88
2023-04-30T06:00:30.177Z,5.00
2023-04-30T06:02:56.883Z,5.10
2023-04-30T06:05:23.462Z,5.29
2023-04-30T06:07:50.241Z,5.38
2023-04-30T06:10:16.789Z,5.38
2023-04-30T06:12:43.272Z,5.58
2023-04-30T06:15:10.108Z,5.67
2023-04-30T06:17:36.642Z,5.62
2023-04-30T06:20:06.915Z,5.65
2023-04-30T06:22:34.369Z,5.88
2023-04-30T06:25:00.983Z,5.99
2023-04-30T06:27:32.294Z,6.02
2023-04-30T06:30:00.823Z,5.92
2023-04-30T06:32:27.685Z,6.29
2023-04-30T06:34:55.304Z,6.19
2023-04-30T06:37:21.889Z,6.44
2023-04-30T06:39:49.095Z,6.53
2023-04-30T06:42:15.795Z,6.80
2023-04-30T06:44:42.286Z,7.00
2023-04-30T06:47:09.018Z,6.94
2023-04-30T06:49:35.479Z,7.22
2023-04-30T06:52:01.913Z,7.58
2023-04-30T06:54:28.416Z,7.76
2023-04-30T06:56:54.953Z,7.87
2023-04-30T06:59:21.593Z,8.13
2023-04-30T07:01:48.201Z,8.17
2023-04-30T07:04:14.842Z,8.24
2023-04-30T07:06:41.407Z,8.52
2023-04-30T07:09:08.284Z,8.44
2023-04-30T07:11:34.745Z,8.94
2023-04-30T07:14:01.201Z,9.38
2023-04-30T07:16:28.050Z,9.19
2023-04-30T07:18:54.694Z,9.41
2023-04-30T07:21:21.996Z,9.72
2023-04-30T07:23:48.754Z,9.45
2023-04-30T07:26:15.701Z,9.87
2023-04-30T07:28:42.408Z,10.14
2023-04-30T07:31:08.989Z,10.37
2023-04-30T07:33:35.548Z,10.61
2023-04-30T07:36:02.031Z,10.90
2023-04-30T07:38:29.345Z,11.09
2023-04-30T07:40:55.864Z,10.49
2023-04-30T07:43:22.338Z,10.97
2023-04-30T07:45:50.117Z,10.52
2023-04-30T07:48:17.310Z,10.72
2023-04-30T07:50:43.793Z,10.92
2023-04-30T07:53:10.355Z,11.07
2023-04-30T07:55:36.886Z,10.19
2023-04-30T07:58:04.417Z,10.66
2023-04-30T08:00:31.240Z,10.80
2023-04-30T08:03:00.992Z,11.29
2023-04-30T08:05:27.733Z,11.78
2023-04-30T08:07:54.213Z,11.51
2023-04-30T08:10:20.826Z,11.90
2023-04-30T08:12:47.555Z,12.06
2023-04-30T08:15:14.046Z,12.37
2023-04-30T08:17:40.628Z,12.81
2023-04-30T08:20:07.822Z,12.24
2023-04-30T08:22:34.330Z,12.65
2023-04-30T08:25:02.080Z,12.50
2023-04-30T08:27:30.658Z,12.34
2023-04-30T08:29:57.401Z,12.69
2023-04-30T08:32:24.265Z,12.32
2023-04-30T08:34:51.686Z,12.65
2023-04-30T08:37:18.134Z,13.37
2023-04-30T08:39:44.589Z,12.70
2023-04-30T08:42:14.646Z,13.58
2023-04-30T08:44:44.007Z,13.62
2023-04-30T08:47:13.317Z,13.97
2023-04-30T08:49:41.099Z,13.52
2023-04-30T08:52:08.534Z,14.49
2023-04-30T08:54:36.831Z,13.59
2023-04-30T08:57:04.680Z,14.17
2023-04-30T08:59:31.389Z,13.80
2023-04-30T09:01:59.915Z,14.25
2023-04-30T09:04:26.595Z,13.79
2023-04-30T09:06:58.887Z,14.27
2023-04-30T09:09:30.793Z,14.65
2023-04-30T09:12:16.888Z,14.50
2023-04-30T09:15:05.675Z,14.44
2023-04-30T09:17:34.197Z,14.34
2023-04-30T09:20:27.516Z,15.21
2023-04-30T09:23:08.048Z,15.25
2023-04-30T09:25:40.418Z,14.29
2023-04-30T09:28:11.417Z,15.00
2023-04-30T09:30:39.589Z,14.85
2023-04-30T09:33:08.692Z,15.09
2023-04-30T09:35:39.462Z,15.06
2023-04-30T09:38:06.503Z,14.57
2023-04-30T09:40:37.796Z,15.34
2023-04-30T09:43:04.592Z,16.07
2023-04-30T09:45:41.486Z,16.23
2023-04-30T09:48:17.151Z,16.40
2023-04-30T09:50:45.010Z,16.06
2023-04-30T09:53:17.875Z,15.10
2023-04-30T09:55:47.242Z,14.14
2023-04-30T09:58:15.552Z,15.81
2023-04-30T10:00:44.886Z,15.70
2023-04-30T10:03:15.621Z,15.54
2023-04-30T10:05:48.976Z,15.39
2023-04-30T10:08:24.676Z,15.02
2023-04-30T10:10:56.985Z,15.95
2023-04-30T10:13:28.871Z,15.51
2023-04-30T10:15:59.179Z,16.06
2023-04-30T10:18:33.767Z,17.18
2023-04-30T10:21:03.879Z,15.98
2023-04-30T10:23:30.601Z,15.99
2023-04-30T10:25:58.894Z,16.31
2023-04-30T10:28:25.895Z,15.75
2023-04-30T10:30:52.995Z,15.81
2023-04-30T10:33:25.722Z,14.81
2023-04-30T10:36:05.068Z,15.81
2023-04-30T10:38:33.342Z,15.59
2023-04-30T10:41:03.665Z,15.71
2023-04-30T10:43:31.623Z,16.16
2023-04-30T10:45:58.838Z,15.36
2023-04-30T10:48:26.858Z,15.28
2023-04-30T10:50:56.700Z,15.32
2023-04-30T10:53:26.067Z,15.13
2023-04-30T10:56:11.320Z,15.17
2023-04-30T10:58:39.666Z,14.99
2023-04-30T11:01:08.996Z,14.64
2023-04-30T11:03:36.414Z,14.63
2023-04-30T11:06:19.954Z,14.61
2023-04-30T11:08:47.115Z,14.35
2023-04-30T11:11:23.816Z,14.58
2023-04-30T11:14:01.096Z,14.93
2023-04-30T11:16:34.346Z,15.05
2023-04-30T11:19:11.810Z,15.12
2023-04-30T11:21:42.608Z,15.38
2023-04-30T11:24:09.051Z,15.32
2023-04-30T11:27:05.500Z,14.80
2023-04-30T11:29:32.552Z,15.61
2023-04-30T11:32:04.916Z,16.84
2023-04-30T11:34:31.382Z,16.32
2023-04-30T11:36:59.890Z,17.54
2023-04-30T11:39:28.903Z,16.13
2023-04-30T11:41:55.894Z,16.96
2023-04-30T11:44:25.665Z,17.70
2023-04-30T11:54:54.930Z,16.52
2023-04-30T11:57:21.944Z,13.73
2023-04-30T11:59:49.215Z,13.92
2023-04-30T12:02:16.616Z,13.24
2023-04-30T12:04:44.132Z,13.17
2023-04-30T12:07:10.662Z,12.53
2023-04-30T12:09:54.197Z,12.69
2023-04-30T12:12:30.443Z,12.69
2023-04-30T12:15:26.709Z,12.44
2023-04-30T12:18:11.019Z,12.54
2023-04-30T12:20:38.109Z,12.24
2023-04-30T12:23:04.671Z,12.37
2023-04-30T12:25:31.200Z,11.71
2023-04-30T12:27:59.782Z,11.89
2023-04-30T12:30:27.022Z,11.48
2023-04-30T12:32:57.077Z,11.87
2023-04-30T12:35:24.975Z,12.03
2023-04-30T12:37:53.693Z,11.78
2023-04-30T12:40:26.685Z,11.63
2023-04-30T12:43:01.145Z,11.81
2023-04-30T12:45:47.890Z,12.03
2023-04-30T12:48:16.002Z,12.00
2023-04-30T12:50:43.221Z,11.84
2023-04-30T12:53:09.657Z,11.91
2023-04-30T12:55:37.821Z,11.81
2023-04-30T12:58:11.567Z,11.66
2023-04-30T13:00:50.093Z,11.59
2023-04-30T13:03:20.046Z,11.40
2023-04-30T13:05:48.658Z,11.21
2023-04-30T13:08:16.011Z,11.20
2023-04-30T13:10:42.964Z,11.17
2023-04-30T13:13:10.756Z,11.14
2023-04-30T13:15:37.942Z,11.16
2023-04-30T13:18:04.582Z,11.18
2023-04-30T13:20:31.177Z,11.20
2023-04-30T13:22:57.742Z,11.05
2023-04-30T13:25:24.249Z,11.12
2023-04-30T13:27:50.896Z,11.07
2023-04-30T13:30:17.847Z,11.02
2023-04-30T13:32:45.947Z,10.91
2023-04-30T13:35:12.599Z,11.03
2023-04-30T13:37:39.122Z,10.92
2023-04-30T13:40:09.464Z,10.99
2023-04-30T13:42:41.683Z,11.03
2023-04-30T13:45:08.835Z,11.14
2023-04-30T13:47:36.044Z,11.06
2023-04-30T13:50:06.602Z,11.04
2023-04-30T13:52:33.090Z,11.03
2023-04-30T13:55:00.238Z,10.89
2023-04-30T13:57:26.698Z,11.03
2023-04-30T13:59:54.381Z,10.88
2023-04-30T14:02:21.146Z,10.96
2023-04-30T14:04:58.375Z,10.97
2023-04-30T14:07:31.932Z,10.90
2023-04-30T14:09:58.396Z,11.03
2023-04-30T14:12:24.853Z,10.94
2023-04-30T14:14:51.364Z,10.99
2023-04-30T14:17:17.885Z,10.93
2023-04-30T14:19:44.483Z,10.92
2023-04-30T14:22:11.029Z,10.77
2023-04-30T14:24:37.492Z,10.76
2023-04-30T14:27:04.085Z,10.94
2023-04-30T14:29:30.593Z,10.93
2023-04-30T14:31:57.321Z,10.88
2023-04-30T14:34:24.567Z,10.92
2023-04-30T14:36:51.614Z,10.96
2023-04-30T14:39:18.066Z,10.97
2023-04-30T14:41:44.661Z,10.94
2023-04-30T14:44:11.264Z,10.87
2023-04-30T14:46:37.905Z,10.90
2023-04-30T14:49:04.495Z,10.70
2023-04-30T14:51:32.275Z,10.73
2023-04-30T14:53:59.299Z,10.74
2023-04-30T14:56:25.891Z,11.01
2023-04-30T14:58:52.438Z,11.03
2023-04-30T15:01:18.992Z,10.94
2023-04-30T15:03:46.080Z,11.04
2023-04-30T15:06:13.785Z,11.16
2023-04-30T15:08:40.842Z,11.08
2023-04-30T15:11:09.710Z,10.80
2023-04-30T15:13:39.919Z,10.82
2023-04-30T15:16:07.111Z,10.87
2023-04-30T15:18:34.513Z,10.76
2023-04-30T15:21:02.214Z,10.66
2023-04-30T15:23:28.781Z,10.88
2023-04-30T15:25:55.558Z,10.81
2023-04-30T15:28:24.388Z,10.66
2023-04-30T15:30:52.323Z,10.80
2023-04-30T15:33:24.473Z,10.84
2023-04-30T15:35:51.108Z,10.79
2023-04-30T15:38:17.680Z,10.83
2023-04-30T15:40:44.283Z,10.80
2023-04-30T15:43:10.801Z,10.88
2023-04-30T15:45:37.372Z,10.93
2023-04-30T15:48:04.148Z,10.87
2023-04-30T15:50:31.193Z,10.92
2023-04-30T15:52:57.977Z,11.01
2023-04-30T15:55:24.614Z,10.89
2023-04-30T15:57:51.308Z,10.91
2023-04-30T16:00:18.556Z,10.85
2023-04-30T16:02:45.095Z,10.86
2023-04-30T16:05:12.305Z,10.84
2023-04-30T16:07:39.548Z,10.78
2023-04-30T16:10:07.019Z,10.91
2023-04-30T16:12:34.263Z,10.90
2023-04-30T16:15:00.759Z,10.94
2023-04-30T16:17:29.057Z,10.89
2023-04-30T16:19:55.773Z,10.83
2023-04-30T16:22:22.923Z,10.83
2023-04-30T16:24:49.373Z,10.81
2023-04-30T16:27:15.830Z,10.80
2023-04-30T16:29:42.296Z,10.79
2023-04-30T16:32:08.959Z,10.61
2023-04-30T16:34:35.498Z,10.64
2023-04-30T16:37:02.084Z,10.61
2023-04-30T16:39:30.093Z,10.66
2023-04-30T16:41:56.581Z,10.67
2023-04-30T16:44:23.091Z,10.62
2023-04-30T16:46:49.489Z,10.60
2023-04-30T16:49:16.536Z,10.57
2023-04-30T16:51:42.997Z,10.61
2023-04-30T16:54:09.556Z,10.53
2023-04-30T16:56:36.701Z,10.52
2023-04-30T16:59:03.156Z,10.51
2023-04-30T17:01:29.703Z,10.52
2023-04-30T17:03:56.294Z,10.54
2023-04-30T17:06:22.862Z,10.64
2023-04-30T17:08:49.356Z,10.56
2023-04-30T17:11:19.070Z,10.53
2023-04-30T17:13:45.645Z,10.42
2023-04-30T17:16:12.358Z,10.37
2023-04-30T17:18:38.998Z,10.29
2023-04-30T17:21:05.466Z,10.29
2023-04-30T17:23:31.963Z,10.35
2023-04-30T17:25:58.593Z,10.30
2023-04-30T17:28:25.154Z,10.26
2023-04-30T17:30:52.473Z,10.27
2023-04-30T17:33:18.960Z,10.23
2023-04-30T17:35:45.635Z,10.15
2023-04-30T17:38:12.120Z,10.14
2023-04-30T17:40:38.598Z,10.09
2023-04-30T17:43:05.097Z,10.04
2023-04-30T17:45:31.520Z,10.08
2023-04-30T17:47:58.002Z,10.00
2023-04-30T17:50:24.490Z,10.04
2023-04-30T17:52:51.330Z,9.97
2023-04-30T17:55:17.842Z,9.95
2023-04-30T17:57:44.476Z,9.86
2023-04-30T18:00:11.476Z,9.94
2023-04-30T18:02:38.009Z,9.80
2023-04-30T18:05:04.727Z,9.81
2023-04-30T18:07:31.740Z,9.80
2023-04-30T18:09:58.539Z,9.76
2023-04-30T18:12:25.613Z,9.74
2023-04-30T18:14:52.114Z,9.69
2023-04-30T18:17:18.596Z,9.61
2023-04-30T18:19:48.548Z,9.60
2023-04-30T18:22:15.322Z,9.64
2023-04-30T18:24:42.456Z,9.54
2023-04-30T18:27:09.368Z,9.48
2023-04-30T18:29:36.444Z,9.49
2023-04-30T18:32:03.033Z,9.44
2023-04-30T18:34:29.630Z,9.40
2023-04-30T18:36:56.462Z,9.34
2023-04-30T18:39:22.921Z,9.30
2023-04-30T18:41:49.403Z,9.29
2023-04-30T18:44:16.133Z,9.30
2023-04-30T18:46:42.745Z,9.23
2023-04-30T18:49:09.293Z,9.27
2023-04-30T18:54:12.622Z,9.17
2023-04-30T18:56:39.182Z,9.17
2023-04-30T18:59:05.669Z,9.02
2023-04-30T19:01:32.348Z,9.03
2023-04-30T19:03:58.843Z,8.99
2023-04-30T19:06:25.407Z,8.93
2023-04-30T19:08:51.948Z,8.88
2023-04-30T19:11:18.964Z,8.73
2023-04-30T19:13:45.609Z,8.75
2023-04-30T19:16:12.380Z,8.70
2023-04-30T19:18:39.591Z,8.55
2023-04-30T19:21:06.038Z,8.51
2023-04-30T19:23:32.560Z,8.46
2023-04-30T19:25:59.695Z,8.56
2023-04-30T19:28:26.205Z,8.57
2023-04-30T19:30:54.685Z,8.55
2023-04-30T19:33:22.473Z,8.53
2023-04-30T19:35:50.162Z,8.51
2023-04-30T19:38:17.248Z,8.44
2023-04-30T19:40:48.881Z,8.22
2023-04-30T19:43:15.408Z,8.23
2023-04-30T19:45:53.189Z,8.19
2023-04-30T19:48:21.383Z,8.25
2023-04-30T19:50:48.799Z,8.25
2023-04-30T19:53:17.183Z,8.21
2023-04-30T19:55:43.974Z,8.13
2023-04-30T19:58:10.453Z,8.02
2023-04-30T20:00:38.186Z,8.04
2023-04-30T20:03:05.400Z,7.93
2023-04-30T20:05:32.653Z,8.06
2023-04-30T20:07:59.763Z,7.95
2023-04-30T20:10:26.407Z,7.88
2023-04-30T20:12:53.932Z,7.89
2023-04-30T20:15:22.270Z,7.75
2023-04-30T20:17:50.691Z,7.64
2023-04-30T20:20:19.734Z,7.67
2023-04-30T20:22:51.648Z,7.67
2023-04-30T20:25:18.783Z,7.49
2023-04-30T20:27:45.255Z,7.56
2023-04-30T20:30:13.182Z,7.50
2023-04-30T20:32:41.130Z,7.49
2023-04-30T20:35:08.340Z,7.50
2023-04-30T20:37:36.024Z,7.56
2023-04-30T20:40:02.594Z,7.56
2023-04-30T20:42:29.177Z,7.58
2023-04-30T20:44:56.466Z,7.59
2023-04-30T20:47:23.260Z,7.55
2023-04-30T20:49:49.724Z,7.56
2023-04-30T20:52:16.638Z,7.49
2023-04-30T20:54:43.505Z,7.51
2023-04-30T20:57:10.512Z,7.39
2023-04-30T20:59:37.345Z,7.36
2023-04-30T21:02:04.421Z,7.29
2023-04-30T21:04:32.071Z,7.19
2023-04-30T21:06:58.901Z,7.24
2023-04-30T21:09:25.487Z,7.16
2023-04-30T21:11:51.999Z,7.10
2023-04-30T21:14:18.581Z,7.07
2023-04-30T21:16:45.162Z,7.00
2023-04-30T21:19:11.687Z,6.98
2023-04-30T21:21:38.235Z,6.95
2023-04-30T21:24:05.212Z,6.94
2023-04-30T21:26:32.051Z,6.91
2023-04-30T21:28:58.849Z,6.83
2023-04-30T21:31:25.806Z,6.80
2023-04-30T21:33:52.293Z,6.82
2023-04-30T21:36:18.994Z,6.80
2023-04-30T21:38:45.894Z,6.79
2023-04-30T21:41:16.307Z,6.73
2023-04-30T21:43:43.640Z,6.67
2023-04-30T21:57:33.829Z,6.40
2023-04-30T22:00:00.443Z,6.43
2023-04-30T22:02:27.150Z,6.43
2023-04-30T22:04:55.496Z,6.41
2023-04-30T22:07:22.716Z,6.28
2023-04-30T22:09:49.437Z,6.31
2023-04-30T22:12:15.947Z,6.19
2023-04-30T22:14:42.395Z,6.22
2023-04-30T22:17:08.860Z,6.27
2023-04-30T22:19:35.340Z,6.17
2023-04-30T22:22:01.822Z,6.19
2023-04-30T22:24:28.319Z,6.14
2023-04-30T22:26:54.920Z,6.12
2023-04-30T22:29:21.348Z,6.14
2023-04-30T22:31:47.975Z,6.13
2023-04-30T22:34:16.693Z,6.11
2023-04-30T22:36:44.376Z,6.07
2023-04-30T22:39:11.839Z,6.02
2023-04-30T22:41:38.400Z,6.02
2023-04-30T22:44:05.312Z,5.99
2023-04-30T22:46:33.548Z,5.91
2023-04-30T22:49:01.072Z,5.89
2023-04-30T22:51:27.876Z,5.84
2023-04-30T22:53:56.306Z,5.84
2023-04-30T22:56:23.278Z,5.85
2023-04-30T22:58:49.881Z,5.83
2023-04-30T23:01:16.838Z,5.77
2023-04-30T23:03:43.422Z,5.64
2023-04-30T23:06:09.950Z,5.62
2023-04-30T23:08:36.515Z,5.65
2023-04-30T23:11:04.892Z,5.59
2023-04-30T23:13:31.441Z,5.56
2023-04-30T23:16:05.309Z,5.55
2023-04-30T23:18:32.330Z,5.55
2023-04-30T23:20:59.018Z,5.52
2023-04-30T23:23:26.135Z,5.55
2023-04-30T23:25:53.012Z,5.50
2023-04-30T23:28:19.474Z,5.45
2023-04-30T23:30:46.008Z,5.43
2023-04-30T23:33:12.635Z,5.39
2023-04-30T23:35:41.973Z,5.35
2023-04-30T23:38:09.298Z,5.32
2023-04-30T23:40:37.003Z,5.29
2023-04-30T23:43:04.066Z,5.34
2023-04-30T23:45:30.936Z,5.29
2023-04-30T23:47:57.420Z,5.24
2023-04-30T23:50:23.918Z,5.20
2023-04-30T23:52:50.771Z,5.13
2023-04-30T23:55:17.802Z,5.12
2023-04-30T23:57:44.302Z,5.10
